createdAt,value
2022-10-18T00:02:48.304Z,57.10
2022-10-18T00:07:50.522Z,57.10
2022-10-18T00:12:53.195Z,57.10
2022-10-18T00:17:55.484Z,57.30
2022-10-18T00:22:57.874Z,57.30
2022-10-18T00:28:00.176Z,57.50
2022-10-18T00:33:02.397Z,57.50
2022-10-18T00:38:04.640Z,57.50
2022-10-18T00:43:09.064Z,57.70
2022-10-18T00:48:13.492Z,57.70
2022-10-18T00:53:19.378Z,57.90
2022-10-18T00:58:21.875Z,58.00
2022-10-18T01:03:24.125Z,57.80
2022-10-18T01:14:19.182Z,57.90
2022-10-18T01:35:11.500Z,57.90
2022-10-18T01:40:17.275Z,58.00
2022-10-18T01:45:21.776Z,58.30
2022-10-18T01:50:33.951Z,58.30
2022-10-18T01:56:03.774Z,58.00
2022-10-18T02:01:12.877Z,58.00
2022-10-18T02:11:29.524Z,58.40
2022-10-18T02:21:43.452Z,58.60
2022-10-18T02:26:45.847Z,58.70
2022-10-18T02:31:50.896Z,58.70
2022-10-18T02:36:57.518Z,58.80
2022-10-18T02:42:00.215Z,58.80
2022-10-18T02:47:06.071Z,58.90
2022-10-18T02:52:08.301Z,59.20
2022-10-18T02:57:10.511Z,59.20
2022-10-18T03:02:12.921Z,59.00
2022-10-18T03:07:15.180Z,59.20
2022-10-18T03:12:17.516Z,59.20
2022-10-18T03:17:19.778Z,59.40
2022-10-18T03:22:22.186Z,59.10
2022-10-18T03:27:24.588Z,59.20
2022-10-18T03:32:26.950Z,59.20
2022-10-18T03:37:29.192Z,59.20
2022-10-18T03:42:31.704Z,59.40
2022-10-18T03:47:34.195Z,59.50
2022-10-18T03:52:36.571Z,59.70
2022-10-18T03:57:39.135Z,59.80
2022-10-18T04:02:41.761Z,59.60
2022-10-18T04:07:43.975Z,59.70
2022-10-18T04:12:46.219Z,59.60
2022-10-18T04:17:48.472Z,59.50
2022-10-18T04:22:52.474Z,59.70
2022-10-18T04:27:54.859Z,59.70
2022-10-18T04:32:57.069Z,59.70
2022-10-18T04:37:59.315Z,60.10
2022-10-18T04:43:01.667Z,60.10
2022-10-18T04:48:04.150Z,60.10
2022-10-18T04:53:06.791Z,60.10
2022-10-18T04:58:09.044Z,60.50
2022-10-18T05:03:13.634Z,60.30
2022-10-18T05:08:16.104Z,60.50
2022-10-18T05:13:18.451Z,61.00
2022-10-18T05:18:20.805Z,60.90
2022-10-18T05:23:23.522Z,61.10
2022-10-18T05:28:42.194Z,61.40
2022-10-18T05:33:44.572Z,61.90
2022-10-18T05:38:48.395Z,62.00
2022-10-18T05:43:50.665Z,62.40
2022-10-18T05:48:52.954Z,62.60
2022-10-18T05:53:55.429Z,62.50
2022-10-18T05:58:57.692Z,62.40
2022-10-18T06:03:59.922Z,62.70
2022-10-18T06:09:03.500Z,62.80
2022-10-18T06:14:07.996Z,62.70
2022-10-18T06:19:10.316Z,62.00
2022-10-18T06:24:12.656Z,61.90
2022-10-18T06:29:15.164Z,62.10
2022-10-18T06:34:17.439Z,61.90
2022-10-18T06:39:19.644Z,61.50
2022-10-18T06:44:22.571Z,61.10
2022-10-18T06:49:24.877Z,60.90
2022-10-18T06:54:27.125Z,60.50
2022-10-18T06:59:31.233Z,60.80
2022-10-18T07:04:34.313Z,59.70
2022-10-18T07:09:36.638Z,59.60
2022-10-18T07:14:38.855Z,61.20
2022-10-18T07:19:41.104Z,61.60
2022-10-18T07:24:43.342Z,59.80
2022-10-18T07:29:45.566Z,61.70
2022-10-18T07:34:47.779Z,59.70
2022-10-18T07:39:49.982Z,55.80
2022-10-18T07:44:52.265Z,51.50
2022-10-18T07:49:54.507Z,52.30
2022-10-18T07:54:56.754Z,51.00
2022-10-18T07:59:58.989Z,51.70
2022-10-18T08:05:01.405Z,51.90
2022-10-18T08:10:04.087Z,51.80
2022-10-18T08:15:06.713Z,54.30
2022-10-18T08:20:12.094Z,53.00
2022-10-18T08:25:21.346Z,53.50
2022-10-18T08:30:23.743Z,57.90
2022-10-18T08:35:26.047Z,55.50
2022-10-18T08:40:28.764Z,54.60
2022-10-18T08:45:43.019Z,55.50
2022-10-18T08:50:46.899Z,50.80
2022-10-18T08:55:52.669Z,52.40
2022-10-18T09:12:37.478Z,52.30
2022-10-18T09:18:19.684Z,50.80
2022-10-18T09:23:31.647Z,52.80
2022-10-18T09:33:59.074Z,52.80
2022-10-18T09:39:10.042Z,51.60
2022-10-18T09:44:24.603Z,51.40
2022-10-18T09:49:34.390Z,52.50
2022-10-18T09:54:43.624Z,53.10
2022-10-18T09:59:48.592Z,54.30
2022-10-18T10:04:51.994Z,52.80
2022-10-18T10:25:43.880Z,53.70
2022-10-18T10:30:46.210Z,52.70
2022-10-18T10:35:58.984Z,52.70
2022-10-18T10:41:01.429Z,53.30
2022-10-18T10:51:15.872Z,53.80
2022-10-18T10:56:24.507Z,54.70
2022-10-18T11:01:30.936Z,55.50
2022-10-18T11:07:12.965Z,56.30
2022-10-18T11:23:01.461Z,57.70
2022-10-18T11:28:13.849Z,61.10
2022-10-18T11:59:47.981Z,61.80
2022-10-18T12:24:16.340Z,61.10
2022-10-18T12:34:56.991Z,61.30
2022-10-18T12:50:39.746Z,62.00
2022-10-18T12:55:45.127Z,62.50
2022-10-18T13:06:04.268Z,62.10
2022-10-18T13:22:05.112Z,62.10
2022-10-18T13:32:29.259Z,62.30
2022-10-18T13:37:31.761Z,61.90
2022-10-18T13:42:34.403Z,62.40
2022-10-18T13:47:38.530Z,62.70
2022-10-18T13:53:17.707Z,63.10
2022-10-18T14:09:14.167Z,63.30
2022-10-18T14:14:48.625Z,62.70
2022-10-18T14:25:35.654Z,62.50
2022-10-18T14:30:52.702Z,62.90
2022-10-18T14:46:29.190Z,64.70
2022-10-18T14:57:32.466Z,64.20
2022-10-18T15:02:38.574Z,64.90
2022-10-18T15:07:41.493Z,65.50
2022-10-18T15:13:08.354Z,65.80
2022-10-18T15:18:19.997Z,65.80
2022-10-18T15:23:25.897Z,66.00
2022-10-18T15:33:42.010Z,65.90
2022-10-18T15:38:47.577Z,65.80
2022-10-18T15:43:52.317Z,65.80
2022-10-18T15:49:18.419Z,66.60
2022-10-18T15:54:30.166Z,66.50
2022-10-18T15:59:32.562Z,66.00
2022-10-18T16:04:36.642Z,65.80
2022-10-18T16:09:39.476Z,65.00
2022-10-18T16:14:41.735Z,64.90
2022-10-18T16:19:44.688Z,65.10
2022-10-18T16:24:47.867Z,64.90
2022-10-18T16:29:50.140Z,64.60
2022-10-18T16:34:52.373Z,64.50
2022-10-18T16:39:54.932Z,64.20
2022-10-18T16:44:58.665Z,64.10
2022-10-18T16:50:06.473Z,63.60
2022-10-18T16:55:16.264Z,63.30
2022-10-18T17:00:22.517Z,63.50
2022-10-18T17:05:24.943Z,64.20
2022-10-18T17:10:27.739Z,64.80
2022-10-18T17:15:32.819Z,65.20
2022-10-18T17:20:37.456Z,65.40
2022-10-18T17:25:51.527Z,65.70
2022-10-18T17:31:07.220Z,66.00
2022-10-18T17:36:09.520Z,65.80
2022-10-18T17:41:12.355Z,66.30
2022-10-18T17:46:15.280Z,66.30
2022-10-18T17:51:18.360Z,66.70
2022-10-18T17:56:20.848Z,66.60
2022-10-18T18:01:23.702Z,65.90
2022-10-18T18:11:40.340Z,65.70
2022-10-18T18:16:45.233Z,65.60
2022-10-18T18:21:47.733Z,65.60
2022-10-18T18:26:50.357Z,64.80
2022-10-18T18:31:53.480Z,63.90
2022-10-18T18:36:55.925Z,63.60
2022-10-18T18:41:58.278Z,63.70
2022-10-18T18:47:01.510Z,64.30
2022-10-18T18:52:04.215Z,65.00
2022-10-18T18:57:06.671Z,65.40
2022-10-18T19:02:10.547Z,66.50
2022-10-18T19:07:12.928Z,67.70
2022-10-18T19:12:20.409Z,66.80
2022-10-18T19:17:23.718Z,66.50
2022-10-18T19:22:25.945Z,66.20
2022-10-18T19:27:28.499Z,65.90
2022-10-18T19:32:31.037Z,65.60
2022-10-18T19:37:33.572Z,65.70
2022-10-18T19:42:37.373Z,65.30
2022-10-18T19:47:41.333Z,65.40
2022-10-18T19:52:43.635Z,65.20
2022-10-18T19:57:45.877Z,65.10
2022-10-18T20:02:48.084Z,65.10
2022-10-18T20:07:50.421Z,64.90
2022-10-18T20:12:52.809Z,65.30
2022-10-18T20:17:56.492Z,65.00
2022-10-18T20:22:58.722Z,65.00
2022-10-18T20:28:01.063Z,64.70
2022-10-18T20:33:03.448Z,64.70
2022-10-18T20:38:05.689Z,63.90
2022-10-18T20:43:07.941Z,64.80
2022-10-18T20:48:10.221Z,64.80
2022-10-18T20:53:12.454Z,64.70
2022-10-18T20:58:15.221Z,64.60
2022-10-18T21:03:17.633Z,64.60
2022-10-18T21:08:19.963Z,64.30
2022-10-18T21:13:22.442Z,64.30
2022-10-18T21:18:27.536Z,64.30
2022-10-18T21:23:29.779Z,64.30
2022-10-18T21:28:32.197Z,64.40
2022-10-18T21:33:34.480Z,64.30
2022-10-18T21:38:37.131Z,64.30
2022-10-18T21:43:41.345Z,64.20
2022-10-18T21:48:46.027Z,64.30
2022-10-18T21:53:50.527Z,64.30
2022-10-18T21:58:53.041Z,64.20
2022-10-18T22:03:57.125Z,64.20
2022-10-18T22:09:01.844Z,64.30
2022-10-18T22:14:04.159Z,64.30
2022-10-18T22:19:07.420Z,64.30
2022-10-18T22:24:10.484Z,64.30
2022-10-18T22:34:27.668Z,64.20
2022-10-18T22:39:30.067Z,64.30
2022-10-18T22:44:34.151Z,64.30
2022-10-18T22:49:36.398Z,64.20
2022-10-18T22:54:38.620Z,64.20
2022-10-18T22:59:40.878Z,64.30
2022-10-18T23:04:43.114Z,64.30
2022-10-18T23:09:45.357Z,64.30
2022-10-18T23:14:47.695Z,64.40
2022-10-18T23:19:49.938Z,64.50
2022-10-18T23:24:52.253Z,64.50
2022-10-18T23:29:54.608Z,64.50
2022-10-18T23:34:56.831Z,64.50
2022-10-18T23:39:59.261Z,64.70
2022-10-18T23:45:01.529Z,64.70
2022-10-18T23:50:04.208Z,64.60
2022-10-18T23:55:07.161Z,64.70
